createdAt,value
2023-02-01T00:00:16.862Z,12.93
2023-02-01T00:02:47.628Z,11.37
2023-02-01T00:05:15.967Z,12.80
2023-02-01T00:07:43.849Z,12.93
2023-02-01T00:10:13.286Z,14.17
2023-02-01T00:12:41.170Z,16.90
2023-02-01T00:15:10.220Z,11.23
2023-02-01T00:17:39.694Z,24.83
2023-02-01T00:20:08.933Z,18.10
2023-02-01T00:22:36.829Z,12.07
2023-02-01T00:25:05.144Z,15.50
2023-02-01T00:27:33.129Z,16.23
2023-02-01T00:30:01.019Z,16.80
2023-02-01T00:32:28.935Z,14.90
2023-02-01T00:34:58.259Z,14.67
2023-02-01T00:37:26.134Z,18.67
2023-02-01T00:39:55.891Z,13.33
2023-02-01T00:42:23.798Z,14.97
2023-02-01T00:44:51.698Z,17.73
2023-02-01T00:47:21.016Z,15.80
2023-02-01T00:49:48.878Z,11.00
2023-02-01T00:52:18.179Z,16.93
2023-02-01T00:54:46.096Z,18.50
2023-02-01T00:57:14.104Z,19.83
2023-02-01T00:59:42.002Z,16.73
2023-02-01T01:02:09.901Z,16.70
2023-02-01T01:04:38.630Z,14.70
2023-02-01T01:07:06.555Z,17.47
2023-02-01T01:09:36.016Z,17.17
2023-02-01T01:12:03.940Z,19.17
2023-02-01T01:14:32.229Z,22.67
2023-02-01T01:17:00.114Z,17.03
2023-02-01T01:19:28.023Z,10.63
2023-02-01T01:21:55.970Z,21.10
2023-02-01T01:24:23.866Z,16.00
2023-02-01T01:26:53.168Z,16.37
2023-02-01T01:29:21.071Z,18.17
2023-02-01T01:31:49.070Z,19.27
2023-02-01T01:34:17.019Z,18.77
2023-02-01T01:36:44.945Z,20.20
2023-02-01T01:39:12.887Z,14.80
2023-02-01T01:41:40.901Z,13.83
2023-02-01T01:44:42.127Z,18.77
2023-02-01T01:47:12.131Z,18.47
2023-02-01T01:49:40.040Z,13.00
2023-02-01T01:52:08.198Z,21.23
2023-02-01T01:54:38.651Z,14.20
2023-02-01T01:57:08.888Z,11.43
2023-02-01T01:59:38.450Z,23.60
2023-02-01T02:02:06.728Z,14.50
2023-02-01T02:04:36.275Z,20.67
2023-02-01T02:07:07.152Z,13.80
2023-02-01T02:09:35.081Z,10.20
2023-02-01T02:12:03.052Z,27.13
2023-02-01T02:14:31.391Z,11.50
2023-02-01T02:17:32.710Z,12.80
2023-02-01T02:20:41.093Z,16.73
2023-02-01T02:23:40.819Z,13.00
2023-02-01T02:26:28.755Z,9.33
2023-02-01T02:29:16.595Z,13.03
2023-02-01T02:32:26.383Z,10.67
2023-02-01T02:34:58.850Z,17.53
2023-02-01T02:37:35.924Z,21.70
2023-02-01T02:40:08.627Z,12.73
2023-02-01T02:43:10.544Z,16.33
2023-02-01T02:45:59.884Z,16.30
2023-02-01T02:48:31.162Z,18.60
2023-02-01T02:51:21.500Z,12.90
2023-02-01T02:54:11.425Z,13.33
2023-02-01T02:56:57.742Z,16.83
2023-02-01T02:59:44.748Z,12.40
2023-02-01T03:02:30.711Z,15.60
2023-02-01T03:04:58.677Z,14.17
2023-02-01T03:08:02.948Z,10.60
2023-02-01T03:10:37.612Z,16.57
2023-02-01T03:13:07.446Z,11.07
2023-02-01T03:15:39.018Z,12.73
2023-02-01T03:18:13.569Z,16.20
2023-02-01T03:20:43.006Z,12.07
2023-02-01T03:23:13.580Z,15.13
2023-02-01T03:25:41.885Z,6.93
2023-02-01T03:28:11.198Z,4.63
2023-02-01T03:30:43.011Z,6.50
2023-02-01T03:33:15.352Z,4.87
2023-02-01T03:35:47.431Z,6.17
2023-02-01T03:38:22.752Z,3.73
2023-02-01T03:40:55.194Z,8.53
2023-02-01T03:43:24.292Z,5.57
2023-02-01T03:45:54.551Z,5.57
2023-02-01T03:48:23.451Z,5.40
2023-02-01T03:50:54.843Z,9.80
2023-02-01T03:53:25.555Z,10.03
2023-02-01T03:55:54.678Z,15.00
2023-02-01T03:58:23.721Z,5.47
2023-02-01T04:00:54.408Z,7.53
2023-02-01T04:03:23.827Z,8.13
2023-02-01T04:05:51.956Z,7.13
2023-02-01T04:08:20.067Z,8.63
2023-02-01T04:10:49.537Z,5.93
2023-02-01T04:13:17.564Z,9.40
2023-02-01T04:15:46.693Z,4.80
2023-02-01T04:18:14.579Z,5.40
2023-02-01T04:20:42.482Z,8.33
2023-02-01T04:23:10.412Z,13.57
2023-02-01T04:25:38.305Z,6.57
2023-02-01T04:28:07.996Z,1.67
2023-02-01T04:30:36.014Z,9.03
2023-02-01T04:33:07.326Z,11.70
2023-02-01T04:35:35.855Z,5.93
2023-02-01T04:38:03.746Z,4.03
2023-02-01T04:40:31.636Z,4.50
2023-02-01T04:42:59.581Z,3.67
2023-02-01T04:45:28.950Z,4.17
2023-02-01T04:47:56.851Z,7.17
2023-02-01T04:50:25.716Z,3.40
2023-02-01T04:52:53.634Z,4.57
2023-02-01T04:55:21.539Z,1.77
2023-02-01T04:57:49.483Z,2.87
2023-02-01T05:00:18.361Z,3.40
2023-02-01T05:02:47.635Z,2.40
2023-02-01T05:05:15.747Z,1.70
2023-02-01T05:07:43.633Z,2.27
2023-02-01T05:10:12.471Z,3.73
2023-02-01T05:12:57.611Z,0.77
2023-02-01T05:15:25.631Z,1.90
2023-02-01T05:17:54.901Z,3.30
2023-02-01T05:20:23.110Z,0.50
2023-02-01T05:22:51.225Z,3.07
2023-02-01T05:25:19.975Z,2.53
2023-02-01T05:27:47.927Z,1.37
2023-02-01T05:30:16.428Z,1.80
2023-02-01T05:32:44.352Z,1.90
2023-02-01T05:35:13.657Z,2.70
2023-02-01T05:37:41.595Z,1.90
2023-02-01T05:40:10.736Z,3.13
2023-02-01T05:42:38.631Z,1.17
2023-02-01T05:45:08.660Z,3.93
2023-02-01T05:47:36.564Z,1.37
2023-02-01T05:50:05.445Z,6.00
2023-02-01T05:52:34.815Z,4.90
2023-02-01T05:55:02.758Z,2.27
2023-02-01T05:57:31.100Z,2.90
2023-02-01T06:00:00.438Z,2.80
2023-02-01T06:02:28.751Z,2.87
2023-02-01T06:04:56.648Z,3.37
2023-02-01T06:07:24.678Z,1.73
2023-02-01T06:09:53.945Z,4.20
2023-02-01T06:12:21.874Z,2.20
2023-02-01T06:14:49.768Z,7.80
2023-02-01T06:17:17.679Z,4.67
2023-02-01T06:19:46.072Z,3.07
2023-02-01T06:22:13.979Z,3.93
2023-02-01T06:24:42.831Z,9.57
2023-02-01T06:27:12.131Z,2.53
2023-02-01T06:29:40.044Z,3.20
2023-02-01T06:32:07.971Z,4.80
2023-02-01T06:34:38.202Z,5.40
2023-02-01T06:37:06.131Z,10.50
2023-02-01T06:39:34.003Z,2.67
2023-02-01T06:42:01.924Z,6.67
2023-02-01T06:44:31.204Z,4.17
2023-02-01T06:46:59.205Z,7.80
2023-02-01T06:49:27.163Z,9.70
2023-02-01T06:51:55.113Z,7.93
2023-02-01T06:54:23.031Z,9.10
2023-02-01T06:56:50.916Z,15.77
2023-02-01T06:59:18.865Z,11.30
2023-02-01T07:01:48.257Z,7.87
2023-02-01T07:04:16.177Z,11.33
2023-02-01T07:06:44.191Z,11.10
2023-02-01T07:09:13.235Z,7.70
2023-02-01T07:11:44.166Z,11.43
2023-02-01T07:14:12.406Z,12.27
2023-02-01T07:16:40.776Z,17.83
2023-02-01T07:19:10.124Z,17.20
2023-02-01T07:21:38.035Z,27.13
2023-02-01T07:24:06.949Z,13.80
2023-02-01T07:26:34.995Z,18.67
2023-02-01T07:29:02.954Z,13.00
2023-02-01T07:31:30.972Z,9.77
2023-02-01T07:33:59.308Z,6.67
2023-02-01T07:36:28.564Z,11.27
2023-02-01T07:38:56.993Z,12.57
2023-02-01T07:41:24.998Z,17.53
2023-02-01T07:43:54.778Z,21.53
2023-02-01T07:46:22.893Z,21.73
2023-02-01T07:48:50.975Z,15.73
2023-02-01T07:51:19.387Z,12.60
2023-02-01T07:53:48.753Z,15.80
2023-02-01T07:56:18.112Z,12.00
2023-02-01T07:58:49.639Z,12.30
2023-02-01T08:01:25.125Z,9.43
2023-02-01T08:03:54.255Z,11.90
2023-02-01T08:06:23.298Z,14.63
2023-02-01T08:08:53.242Z,16.87
2023-02-01T08:11:22.627Z,8.37
2023-02-01T08:13:50.938Z,14.80
2023-02-01T08:16:20.467Z,15.53
2023-02-01T08:18:48.436Z,23.97
2023-02-01T08:21:17.806Z,17.37
2023-02-01T08:23:46.429Z,10.83
2023-02-01T08:26:17.421Z,12.77
2023-02-01T08:28:48.196Z,8.37
2023-02-01T08:31:18.676Z,12.47
2023-02-01T08:33:50.414Z,12.67
2023-02-01T08:36:18.770Z,8.93
2023-02-01T08:38:46.791Z,14.77
2023-02-01T08:41:17.675Z,9.30
2023-02-01T08:43:46.024Z,16.43
2023-02-01T08:46:14.346Z,14.50
2023-02-01T08:48:42.762Z,15.00
2023-02-01T08:51:12.358Z,11.37
2023-02-01T08:53:42.231Z,12.27
2023-02-01T08:56:10.704Z,17.83
2023-02-01T08:58:40.292Z,14.93
2023-02-01T09:01:09.683Z,11.57
2023-02-01T09:03:37.934Z,16.50
2023-02-01T09:06:06.770Z,14.60
2023-02-01T09:08:35.834Z,14.13
2023-02-01T09:11:04.555Z,17.10
2023-02-01T09:13:32.643Z,13.00
2023-02-01T09:16:01.994Z,11.77
2023-02-01T09:18:29.941Z,9.60
2023-02-01T09:20:57.984Z,13.17
2023-02-01T09:23:25.965Z,14.00
2023-02-01T09:25:53.927Z,10.70
2023-02-01T09:28:22.168Z,14.17
2023-02-01T09:30:50.166Z,8.97
2023-02-01T09:33:19.515Z,15.63
2023-02-01T09:35:47.405Z,7.67
2023-02-01T09:38:15.335Z,12.17
2023-02-01T09:40:47.318Z,10.83
2023-02-01T09:43:27.403Z,15.43
2023-02-01T09:46:03.275Z,10.53
2023-02-01T09:48:36.344Z,16.93
2023-02-01T09:51:07.040Z,14.77
2023-02-01T09:53:37.063Z,14.07
2023-02-01T09:56:08.457Z,12.50
2023-02-01T09:58:38.240Z,11.47
2023-02-01T10:01:11.236Z,10.50
2023-02-01T10:03:40.702Z,13.00
2023-02-01T10:06:22.271Z,9.60
2023-02-01T10:09:17.327Z,10.80
2023-02-01T10:11:58.714Z,23.77
2023-02-01T10:14:49.540Z,10.40
2023-02-01T10:17:30.680Z,13.67
2023-02-01T10:20:07.640Z,9.77
2023-02-01T10:23:08.710Z,6.77
2023-02-01T10:25:34.948Z,11.83
2023-02-01T10:28:05.165Z,10.33
2023-02-01T10:30:37.672Z,10.30
2023-02-01T10:33:15.307Z,10.80
2023-02-01T10:35:46.701Z,13.37
2023-02-01T10:38:27.127Z,10.57
2023-02-01T10:40:56.172Z,9.10
2023-02-01T10:43:24.150Z,12.23
2023-02-01T10:45:52.275Z,16.73
2023-02-01T10:48:20.475Z,17.83
2023-02-01T10:50:55.934Z,11.63
2023-02-01T10:53:27.775Z,12.70
2023-02-01T10:55:56.320Z,16.70
2023-02-01T10:58:29.365Z,14.53
2023-02-01T11:01:00.257Z,10.20
2023-02-01T11:03:43.761Z,14.40
2023-02-01T11:06:19.943Z,14.50
2023-02-01T11:08:49.622Z,10.67
2023-02-01T11:11:19.329Z,10.07
2023-02-01T11:13:54.833Z,13.33
2023-02-01T11:16:23.042Z,10.67
2023-02-01T11:18:58.160Z,19.97
2023-02-01T11:21:27.584Z,22.37
2023-02-01T11:23:55.564Z,19.10
2023-02-01T11:26:25.501Z,21.73
2023-02-01T11:28:56.780Z,9.00
2023-02-01T11:31:24.969Z,13.57
2023-02-01T11:33:55.929Z,10.63
2023-02-01T11:36:28.486Z,15.43
2023-02-01T11:39:10.831Z,13.20
2023-02-01T11:41:44.333Z,16.30
2023-02-01T11:44:24.383Z,13.07
2023-02-01T11:46:52.510Z,14.10
2023-02-01T11:49:25.546Z,4.80
2023-02-01T11:52:12.839Z,7.33
2023-02-01T11:54:56.880Z,8.53
2023-02-01T11:57:38.874Z,5.30
2023-02-01T12:00:29.280Z,10.57
2023-02-01T12:03:13.374Z,4.30
2023-02-01T12:05:51.973Z,2.93
2023-02-01T12:08:35.385Z,3.40
2023-02-01T12:11:20.138Z,4.70
2023-02-01T12:13:54.879Z,2.67
2023-02-01T12:16:30.955Z,0.80
2023-02-01T12:19:38.547Z,1.30
2023-02-01T12:22:15.251Z,0.83
2023-02-01T12:25:16.926Z,2.03
2023-02-01T12:28:15.155Z,1.40
2023-02-01T12:31:06.613Z,1.10
2023-02-01T12:33:44.151Z,2.37
2023-02-01T12:36:16.522Z,2.43
2023-02-01T12:38:54.029Z,2.33
2023-02-01T12:41:37.326Z,1.10
2023-02-01T12:44:07.857Z,4.40
2023-02-01T12:46:39.714Z,4.10
2023-02-01T12:49:12.552Z,2.57
2023-02-01T12:51:43.486Z,1.73
2023-02-01T12:54:14.546Z,4.10
2023-02-01T12:56:46.678Z,1.20
2023-02-01T12:59:22.033Z,0.73
2023-02-01T13:01:57.628Z,1.07
2023-02-01T13:04:30.592Z,0.97
2023-02-01T13:07:04.204Z,0.30
2023-02-01T13:09:38.842Z,0.50
2023-02-01T13:12:13.725Z,0.40
2023-02-01T13:14:47.409Z,0.50
2023-02-01T13:17:19.027Z,0.80
2023-02-01T13:19:51.583Z,0.70
2023-02-01T13:22:26.819Z,2.37
2023-02-01T13:24:57.373Z,0.43
2023-02-01T13:27:31.224Z,2.10
2023-02-01T13:30:01.426Z,1.30
2023-02-01T13:33:51.300Z,0.70
2023-02-01T13:36:10.638Z,1.07
2023-02-01T13:39:22.016Z,0.60
2023-02-01T13:41:55.908Z,0.60
2023-02-01T13:44:29.931Z,0.73
2023-02-01T13:47:00.417Z,1.10
2023-02-01T13:49:29.938Z,1.07
2023-02-01T13:51:59.638Z,3.60
2023-02-01T13:54:30.562Z,1.53
2023-02-01T13:57:00.282Z,1.20
2023-02-01T13:59:55.750Z,3.93
2023-02-01T14:03:16.883Z,4.83
2023-02-01T14:06:08.244Z,2.83
2023-02-01T14:08:42.842Z,1.90
2023-02-01T14:11:36.570Z,7.93
2023-02-01T14:14:47.050Z,5.13
2023-02-01T14:17:36.216Z,2.17
2023-02-01T14:20:55.503Z,4.13
2023-02-01T14:23:25.146Z,10.50
2023-02-01T14:26:21.073Z,5.63
2023-02-01T14:28:55.417Z,8.80
2023-02-01T14:31:50.050Z,3.60
2023-02-01T14:34:22.030Z,2.27
2023-02-01T14:36:53.493Z,5.40
2023-02-01T14:39:28.628Z,4.47
2023-02-01T14:42:02.848Z,5.87
2023-02-01T14:44:37.066Z,8.20
2023-02-01T14:47:13.641Z,4.67
2023-02-01T14:49:51.247Z,6.07
2023-02-01T14:52:22.590Z,7.00
2023-02-01T14:54:58.197Z,6.93
2023-02-01T14:57:27.849Z,5.43
2023-02-01T15:00:02.494Z,5.40
2023-02-01T15:02:32.815Z,2.53
2023-02-01T15:05:02.176Z,5.97
2023-02-01T15:07:31.059Z,8.17
2023-02-01T15:10:00.233Z,2.53
2023-02-01T15:12:32.890Z,4.17
2023-02-01T15:15:15.544Z,7.30
2023-02-01T15:17:43.518Z,9.07
2023-02-01T15:20:19.300Z,7.50
2023-02-01T15:22:55.771Z,3.97
2023-02-01T15:25:25.720Z,10.90
2023-02-01T15:27:54.166Z,6.87
2023-02-01T15:30:24.395Z,7.63
2023-02-01T15:32:53.209Z,9.17
2023-02-01T15:35:44.615Z,9.70
2023-02-01T15:38:36.804Z,9.20
2023-02-01T15:41:07.512Z,17.33
2023-02-01T15:43:38.027Z,12.00
2023-02-01T15:46:10.247Z,12.67
2023-02-01T15:48:42.865Z,8.70
2023-02-01T15:51:18.494Z,10.37
2023-02-01T15:53:48.791Z,11.47
2023-02-01T15:56:17.184Z,14.57
2023-02-01T15:58:48.527Z,14.77
2023-02-01T16:01:16.477Z,9.53
2023-02-01T16:03:48.151Z,13.87
2023-02-01T16:06:31.910Z,15.33
2023-02-01T16:09:04.095Z,15.83
2023-02-01T16:11:33.394Z,11.33
2023-02-01T16:14:02.443Z,12.50
2023-02-01T16:16:31.515Z,8.17
2023-02-01T16:18:59.467Z,10.20
2023-02-01T16:21:27.491Z,12.13
2023-02-01T16:23:56.843Z,15.80
2023-02-01T16:26:24.792Z,11.83
2023-02-01T16:28:52.728Z,18.97
2023-02-01T16:31:24.005Z,19.30
2023-02-01T16:33:52.955Z,15.37
2023-02-01T16:36:21.460Z,10.73
2023-02-01T16:38:50.422Z,20.87
2023-02-01T16:41:22.884Z,18.00
2023-02-01T16:43:53.053Z,16.00
2023-02-01T16:46:23.717Z,10.27
2023-02-01T16:48:54.719Z,16.43
2023-02-01T16:51:23.239Z,16.13
2023-02-01T16:53:54.707Z,9.53
2023-02-01T16:56:43.765Z,17.90
2023-02-01T16:59:11.749Z,23.13
2023-02-01T17:01:39.996Z,12.03
2023-02-01T17:04:07.987Z,23.50
2023-02-01T17:06:37.814Z,14.90
2023-02-01T17:09:05.988Z,11.03
2023-02-01T17:11:35.646Z,10.63
2023-02-01T17:14:12.164Z,8.30
2023-02-01T17:16:40.148Z,9.90
2023-02-01T17:19:12.379Z,10.90
2023-02-01T17:21:43.951Z,14.20
2023-02-01T17:24:15.313Z,12.23
2023-02-01T17:26:45.325Z,10.40
2023-02-01T17:29:13.540Z,8.87
2023-02-01T17:31:45.638Z,10.10
2023-02-01T17:34:15.602Z,7.27
2023-02-01T17:36:43.896Z,12.47
2023-02-01T17:39:31.952Z,4.83
2023-02-01T17:42:01.588Z,9.57
2023-02-01T17:44:29.604Z,7.80
2023-02-01T17:46:59.384Z,9.93
2023-02-01T17:49:28.875Z,12.80
2023-02-01T17:51:56.895Z,13.73
2023-02-01T17:54:26.422Z,8.47
2023-02-01T17:56:54.384Z,14.47
2023-02-01T17:59:23.716Z,15.53
2023-02-01T18:01:51.950Z,10.63
2023-02-01T18:04:21.757Z,12.80
2023-02-01T18:06:49.666Z,16.30
2023-02-01T18:09:17.557Z,14.70
2023-02-01T18:11:45.496Z,14.53
2023-02-01T18:14:14.193Z,18.30
2023-02-01T18:16:43.504Z,10.87
2023-02-01T18:19:11.441Z,12.73
2023-02-01T18:21:40.851Z,17.40
2023-02-01T18:24:10.263Z,15.30
2023-02-01T18:26:38.277Z,14.80
2023-02-01T18:29:06.416Z,14.33
2023-02-01T18:31:35.399Z,7.00
2023-02-01T18:34:04.760Z,12.67
2023-02-01T18:36:32.735Z,15.83
2023-02-01T18:39:00.652Z,15.47
2023-02-01T18:41:28.562Z,16.57
2023-02-01T18:43:56.487Z,7.63
2023-02-01T18:46:24.563Z,15.77
2023-02-01T18:48:52.540Z,15.43
2023-02-01T18:51:23.500Z,13.60
2023-02-01T18:53:51.659Z,19.07
2023-02-01T18:56:19.683Z,17.77
2023-02-01T18:58:47.709Z,11.90
2023-02-01T19:01:17.590Z,17.50
2023-02-01T19:03:53.591Z,19.70
2023-02-01T19:06:29.143Z,11.10
2023-02-01T19:08:57.373Z,20.10
2023-02-01T19:11:25.267Z,16.43
2023-02-01T19:13:54.818Z,9.97
2023-02-01T19:16:22.777Z,11.90
2023-02-01T19:18:52.070Z,17.07
2023-02-01T19:21:20.069Z,13.23
2023-02-01T19:23:49.380Z,10.70
2023-02-01T19:26:19.536Z,25.00
2023-02-01T19:28:48.993Z,12.73
2023-02-01T19:31:17.865Z,24.20
2023-02-01T19:33:46.013Z,15.33
2023-02-01T19:36:13.935Z,17.97
2023-02-01T19:38:42.211Z,15.50
2023-02-01T19:41:11.534Z,19.73
2023-02-01T19:43:39.814Z,20.40
2023-02-01T19:46:07.835Z,16.47
2023-02-01T19:48:35.828Z,11.03
2023-02-01T19:51:04.779Z,17.87
2023-02-01T19:53:32.743Z,19.93
2023-02-01T19:56:01.811Z,15.63
2023-02-01T19:58:31.208Z,18.83
2023-02-01T20:00:59.768Z,9.70
2023-02-01T20:03:28.619Z,15.43
2023-02-01T20:05:58.370Z,11.60
2023-02-01T20:08:26.601Z,11.37
2023-02-01T20:10:54.561Z,13.87
2023-02-01T20:13:22.534Z,11.30
2023-02-01T20:15:57.068Z,24.07
2023-02-01T20:18:25.235Z,15.27
2023-02-01T20:20:56.520Z,15.73
2023-02-01T20:23:24.430Z,12.97
2023-02-01T20:25:53.204Z,15.33
2023-02-01T20:28:21.192Z,15.70
2023-02-01T20:30:49.132Z,15.77
2023-02-01T20:33:18.809Z,18.17
2023-02-01T20:35:46.779Z,9.00
2023-02-01T20:38:15.407Z,15.67
2023-02-01T20:40:43.358Z,21.77
2023-02-01T20:43:11.346Z,12.20
2023-02-01T20:45:40.588Z,15.17
2023-02-01T20:48:08.604Z,23.87
2023-02-01T20:50:38.527Z,11.97
2023-02-01T20:53:06.534Z,16.70
2023-02-01T20:55:34.501Z,10.00
2023-02-01T20:58:02.401Z,14.30
2023-02-01T21:00:31.192Z,15.23
2023-02-01T21:02:59.352Z,18.87
2023-02-01T21:05:59.810Z,10.80
2023-02-01T21:08:28.842Z,15.00
2023-02-01T21:10:58.320Z,17.00
2023-02-01T21:13:26.845Z,23.90
2023-02-01T21:15:55.324Z,21.27
2023-02-01T21:18:23.244Z,13.83
2023-02-01T21:20:51.268Z,11.43
2023-02-01T21:23:20.986Z,27.83
2023-02-01T21:25:49.291Z,13.63
2023-02-01T21:28:17.221Z,25.40
2023-02-01T21:30:45.177Z,12.10
2023-02-01T21:33:13.082Z,22.47
2023-02-01T21:35:44.072Z,22.53
2023-02-01T21:38:12.217Z,14.93
2023-02-01T21:40:41.514Z,15.07
2023-02-01T21:43:08.623Z,19.33
2023-02-01T21:45:38.312Z,13.33
2023-02-01T21:48:07.964Z,22.33
2023-02-01T21:50:36.218Z,16.70
2023-02-01T21:53:04.656Z,20.07
2023-02-01T21:55:32.548Z,13.73
2023-02-01T21:58:01.833Z,18.67
2023-02-01T22:00:29.753Z,22.50
2023-02-01T22:02:57.686Z,19.37
2023-02-01T22:05:25.990Z,19.03
2023-02-01T22:07:54.173Z,21.80
2023-02-01T22:10:23.367Z,20.93
2023-02-01T22:12:52.169Z,21.07
2023-02-01T22:15:21.471Z,12.53
2023-02-01T22:17:49.378Z,15.87
2023-02-01T22:20:17.678Z,18.00
2023-02-01T22:22:48.756Z,16.23
2023-02-01T22:25:16.740Z,17.20
2023-02-01T22:28:30.838Z,9.83
2023-02-01T22:30:34.090Z,12.73
2023-02-01T22:33:02.069Z,17.67
2023-02-01T22:35:29.987Z,13.33
2023-02-01T22:37:57.936Z,22.43
2023-02-01T22:40:25.908Z,12.27
2023-02-01T22:42:53.793Z,19.50
2023-02-01T22:45:22.206Z,14.60
2023-02-01T22:47:52.875Z,16.07
2023-02-01T22:50:22.021Z,17.77
2023-02-01T22:52:49.991Z,16.00
2023-02-01T22:55:17.942Z,11.80
2023-02-01T22:57:45.803Z,14.50
2023-02-01T23:00:14.783Z,19.40
2023-02-01T23:02:43.395Z,10.63
2023-02-01T23:05:12.769Z,18.83
2023-02-01T23:07:40.721Z,18.10
2023-02-01T23:10:09.943Z,12.90
2023-02-01T23:12:37.837Z,19.30
2023-02-01T23:15:06.528Z,20.40
2023-02-01T23:17:34.675Z,23.97
2023-02-01T23:20:03.056Z,14.40
2023-02-01T23:22:32.364Z,15.20
2023-02-01T23:25:00.277Z,17.70
2023-02-01T23:27:28.239Z,9.17
2023-02-01T23:29:56.158Z,9.67
2023-02-01T23:32:24.045Z,11.57
2023-02-01T23:34:51.927Z,12.50
2023-02-01T23:37:19.846Z,13.40
2023-02-01T23:39:49.161Z,12.10
2023-02-01T23:42:17.057Z,7.43
2023-02-01T23:44:45.033Z,12.00
2023-02-01T23:47:13.447Z,17.60
2023-02-01T23:49:41.559Z,15.90
2023-02-01T23:52:10.346Z,9.30
2023-02-01T23:54:38.249Z,5.03
2023-02-01T23:57:07.550Z,11.37
2023-02-01T23:59:35.498Z,11.07
